Weather at Oswaldo Guevara Mujica Airport

Public forecast

Using degrees Celsius for public forecast. Weather courtesy of forecast.io.

Current aviation weather report (METAR) for Oswaldo Guevara Mujica Airport

Report is more than 6 hours old.

Retrieved 2018/11/12 13:00 UTC (2 years ago):

SVAC 121300Z /////KT 9999 BKN017 26/23 Q1014

Closest aviation forecast (TAF) to Oswaldo Guevara Mujica Airport

Forecast is more than 12 hours old.

Closest forecast is Barquisimeto International Airport, 30.2 nm (56.0 km) NNW. Retrieved 2020/09/24 12:45 UTC (22 hours ago):

TAF SVBM 241134Z 2412/2512 11007KT 7000 VCDZ FEW013CB BKN070 TX32/2418Z TN23/2508Z BECMG 2414/2418 07008KT 4000 VCTSDZ FEW013CB BKN070